sensor_id;sensor_type;location;lat;lon;timestamp;P1;durP1;ratioP1;P2;durP2;ratioP2
15425;SDS011;7812;50.072;7.036;2023-08-31T00:01:59;4.80;;;4.40;;
15425;SDS011;7812;50.072;7.036;2023-08-31T00:04:25;5.03;;;4.23;;
15425;SDS011;7812;50.072;7.036;2023-08-31T00:06:51;4.40;;;4.07;;
15425;SDS011;7812;50.072;7.036;2023-08-31T00:09:17;4.90;;;4.10;;
15425;SDS011;7812;50.072;7.036;2023-08-31T00:11:44;5.00;;;4.60;;
15425;SDS011;7812;50.072;7.036;2023-08-31T00:14:10;4.70;;;4.30;;
15425;SDS011;7812;50.072;7.036;2023-08-31T00:16:36;4.83;;;4.43;;
15425;SDS011;7812;50.072;7.036;2023-08-31T00:19:02;3.80;;;3.50;;
15425;SDS011;7812;50.072;7.036;2023-08-31T00:21:28;4.63;;;4.17;;
15425;SDS011;7812;50.072;7.036;2023-08-31T00:23:55;4.00;;;3.50;;
15425;SDS011;7812;50.072;7.036;2023-08-31T00:26:21;4.33;;;3.93;;
15425;SDS011;7812;50.072;7.036;2023-08-31T00:28:47;4.70;;;3.90;;
15425;SDS011;7812;50.072;7.036;2023-08-31T00:31:13;3.70;;;3.40;;
15425;SDS011;7812;50.072;7.036;2023-08-31T00:33:39;3.47;;;3.17;;
15425;SDS011;7812;50.072;7.036;2023-08-31T00:36:06;4.57;;;3.50;;
15425;SDS011;7812;50.072;7.036;2023-08-31T00:38:32;4.10;;;3.70;;
15425;SDS011;7812;50.072;7.036;2023-08-31T00:40:59;3.50;;;3.20;;
15425;SDS011;7812;50.072;7.036;2023-08-31T00:43:25;3.70;;;3.40;;
15425;SDS011;7812;50.072;7.036;2023-08-31T00:45:53;3.70;;;3.40;;
15425;SDS011;7812;50.072;7.036;2023-08-31T00:48:24;4.83;;;3.70;;
15425;SDS011;7812;50.072;7.036;2023-08-31T00:50:50;5.53;;;3.60;;
15425;SDS011;7812;50.072;7.036;2023-08-31T00:53:17;3.77;;;3.47;;
15425;SDS011;7812;50.072;7.036;2023-08-31T00:55:46;3.50;;;3.20;;
15425;SDS011;7812;50.072;7.036;2023-08-31T00:58:13;4.80;;;3.97;;
15425;SDS011;7812;50.072;7.036;2023-08-31T01:03:13;3.80;;;3.50;;
15425;SDS011;7812;50.072;7.036;2023-08-31T01:06:07;4.20;;;3.80;;
15425;SDS011;7812;50.072;7.036;2023-08-31T01:12:06;3.87;;;3.40;;
15425;SDS011;7812;50.072;7.036;2023-08-31T01:14:44;3.93;;;3.53;;
15425;SDS011;7812;50.072;7.036;2023-08-31T01:17:18;3.90;;;3.60;;
15425;SDS011;7812;50.072;7.036;2023-08-31T01:19:57;4.07;;;3.67;;
15425;SDS011;7812;50.072;7.036;2023-08-31T01:22:31;5.90;;;3.47;;
15425;SDS011;7812;50.072;7.036;2023-08-31T01:25:05;4.27;;;3.20;;
15425;SDS011;7812;50.072;7.036;2023-08-31T01:27:34;4.00;;;3.30;;
15425;SDS011;7812;50.072;7.036;2023-08-31T01:30:03;4.40;;;3.30;;
15425;SDS011;7812;50.072;7.036;2023-08-31T01:32:30;4.47;;;3.40;;
15425;SDS011;7812;50.072;7.036;2023-08-31T01:35:03;4.13;;;3.43;;
15425;SDS011;7812;50.072;7.036;2023-08-31T01:37:51;4.03;;;3.40;;
15425;SDS011;7812;50.072;7.036;2023-08-31T01:42:58;4.23;;;3.80;;
15425;SDS011;7812;50.072;7.036;2023-08-31T01:45:26;4.87;;;3.60;;
15425;SDS011;7812;50.072;7.036;2023-08-31T01:47:52;4.07;;;3.60;;
15425;SDS011;7812;50.072;7.036;2023-08-31T01:50:18;5.67;;;3.67;;
15425;SDS011;7812;50.072;7.036;2023-08-31T01:52:44;4.47;;;3.60;;
15425;SDS011;7812;50.072;7.036;2023-08-31T01:55:09;3.70;;;3.40;;
15425;SDS011;7812;50.072;7.036;2023-08-31T01:57:38;4.57;;;4.17;;
15425;SDS011;7812;50.072;7.036;2023-08-31T02:00:04;4.37;;;3.93;;
15425;SDS011;7812;50.072;7.036;2023-08-31T02:02:31;5.00;;;4.00;;
15425;SDS011;7812;50.072;7.036;2023-08-31T02:04:57;4.07;;;3.67;;
15425;SDS011;7812;50.072;7.036;2023-08-31T02:07:26;4.00;;;3.60;;
15425;SDS011;7812;50.072;7.036;2023-08-31T02:09:55;5.50;;;3.97;;
15425;SDS011;7812;50.072;7.036;2023-08-31T02:12:21;4.53;;;3.90;;
15425;SDS011;7812;50.072;7.036;2023-08-31T02:14:47;3.63;;;3.33;;
15425;SDS011;7812;50.072;7.036;2023-08-31T02:17:13;4.40;;;3.67;;
15425;SDS011;7812;50.072;7.036;2023-08-31T02:19:39;4.67;;;3.60;;
15425;SDS011;7812;50.072;7.036;2023-08-31T02:22:05;5.30;;;3.70;;
15425;SDS011;7812;50.072;7.036;2023-08-31T02:24:31;5.93;;;4.47;;
15425;SDS011;7812;50.072;7.036;2023-08-31T02:26:57;4.53;;;3.70;;
15425;SDS011;7812;50.072;7.036;2023-08-31T02:29:23;6.37;;;4.63;;
15425;SDS011;7812;50.072;7.036;2023-08-31T02:31:49;5.00;;;4.10;;
15425;SDS011;7812;50.072;7.036;2023-08-31T02:34:15;5.37;;;4.63;;
15425;SDS011;7812;50.072;7.036;2023-08-31T02:36:41;5.67;;;4.43;;
15425;SDS011;7812;50.072;7.036;2023-08-31T02:39:07;4.93;;;3.73;;
15425;SDS011;7812;50.072;7.036;2023-08-31T02:41:33;4.10;;;3.80;;
15425;SDS011;7812;50.072;7.036;2023-08-31T02:43:59;4.80;;;4.17;;
15425;SDS011;7812;50.072;7.036;2023-08-31T02:46:25;4.73;;;4.23;;
15425;SDS011;7812;50.072;7.036;2023-08-31T02:48:51;4.67;;;4.20;;
15425;SDS011;7812;50.072;7.036;2023-08-31T02:51:16;4.67;;;4.27;;
15425;SDS011;7812;50.072;7.036;2023-08-31T02:53:43;4.97;;;4.47;;
15425;SDS011;7812;50.072;7.036;2023-08-31T02:56:09;7.60;;;4.93;;
15425;SDS011;7812;50.072;7.036;2023-08-31T02:58:34;5.83;;;4.60;;
15425;SDS011;7812;50.072;7.036;2023-08-31T03:01:07;4.57;;;4.17;;
15425;SDS011;7812;50.072;7.036;2023-08-31T03:03:37;5.07;;;4.43;;
15425;SDS011;7812;50.072;7.036;2023-08-31T03:06:03;4.93;;;4.50;;
15425;SDS011;7812;50.072;7.036;2023-08-31T03:08:31;5.43;;;4.37;;
15425;SDS011;7812;50.072;7.036;2023-08-31T03:10:57;4.83;;;4.37;;
15425;SDS011;7812;50.072;7.036;2023-08-31T03:13:24;5.60;;;5.00;;
15425;SDS011;7812;50.072;7.036;2023-08-31T03:15:50;5.57;;;4.33;;
15425;SDS011;7812;50.072;7.036;2023-08-31T03:18:16;4.73;;;4.13;;
15425;SDS011;7812;50.072;7.036;2023-08-31T03:20:42;4.47;;;4.13;;
15425;SDS011;7812;50.072;7.036;2023-08-31T03:23:08;6.53;;;4.47;;
15425;SDS011;7812;50.072;7.036;2023-08-31T03:25:36;5.90;;;4.57;;
15425;SDS011;7812;50.072;7.036;2023-08-31T03:28:02;4.97;;;4.47;;
15425;SDS011;7812;50.072;7.036;2023-08-31T03:30:28;6.63;;;4.37;;
15425;SDS011;7812;50.072;7.036;2023-08-31T03:32:55;5.83;;;4.47;;
15425;SDS011;7812;50.072;7.036;2023-08-31T03:35:20;4.80;;;4.37;;
15425;SDS011;7812;50.072;7.036;2023-08-31T03:37:51;4.57;;;4.17;;
15425;SDS011;7812;50.072;7.036;2023-08-31T03:40:18;5.63;;;4.20;;
15425;SDS011;7812;50.072;7.036;2023-08-31T03:42:44;4.33;;;3.93;;
15425;SDS011;7812;50.072;7.036;2023-08-31T03:45:10;4.90;;;4.30;;
15425;SDS011;7812;50.072;7.036;2023-08-31T03:47:37;5.10;;;4.50;;
15425;SDS011;7812;50.072;7.036;2023-08-31T03:50:03;5.97;;;4.50;;
15425;SDS011;7812;50.072;7.036;2023-08-31T03:52:30;4.80;;;4.40;;
15425;SDS011;7812;50.072;7.036;2023-08-31T03:54:56;4.87;;;4.43;;
15425;SDS011;7812;50.072;7.036;2023-08-31T03:57:22;6.00;;;4.37;;
15425;SDS011;7812;50.072;7.036;2023-08-31T03:59:48;7.07;;;5.10;;
15425;SDS011;7812;50.072;7.036;2023-08-31T04:02:14;4.63;;;4.23;;
15425;SDS011;7812;50.072;7.036;2023-08-31T04:04:40;5.07;;;3.80;;
15425;SDS011;7812;50.072;7.036;2023-08-31T04:07:06;4.23;;;3.80;;
15425;SDS011;7812;50.072;7.036;2023-08-31T04:09:32;5.53;;;4.37;;
15425;SDS011;7812;50.072;7.036;2023-08-31T04:11:58;6.03;;;4.10;;
15425;SDS011;7812;50.072;7.036;2023-08-31T04:14:27;5.43;;;4.13;;
15425;SDS011;7812;50.072;7.036;2023-08-31T04:16:56;4.37;;;3.93;;
15425;SDS011;7812;50.072;7.036;2023-08-31T04:19:22;6.13;;;4.00;;
15425;SDS011;7812;50.072;7.036;2023-08-31T04:21:48;6.03;;;4.37;;
15425;SDS011;7812;50.072;7.036;2023-08-31T04:24:14;5.03;;;4.57;;
15425;SDS011;7812;50.072;7.036;2023-08-31T04:26:43;7.43;;;5.00;;
15425;SDS011;7812;50.072;7.036;2023-08-31T04:29:10;5.13;;;4.10;;
15425;SDS011;7812;50.072;7.036;2023-08-31T04:31:36;4.70;;;4.23;;
15425;SDS011;7812;50.072;7.036;2023-08-31T04:34:03;5.40;;;4.10;;
15425;SDS011;7812;50.072;7.036;2023-08-31T04:36:29;6.13;;;4.10;;
15425;SDS011;7812;50.072;7.036;2023-08-31T04:38:55;5.33;;;4.40;;
15425;SDS011;7812;50.072;7.036;2023-08-31T04:41:21;4.90;;;3.70;;
15425;SDS011;7812;50.072;7.036;2023-08-31T04:43:47;4.63;;;3.80;;
15425;SDS011;7812;50.072;7.036;2023-08-31T04:46:13;4.53;;;3.80;;
15425;SDS011;7812;50.072;7.036;2023-08-31T04:48:39;3.80;;;3.50;;
15425;SDS011;7812;50.072;7.036;2023-08-31T04:51:05;4.93;;;3.47;;
15425;SDS011;7812;50.072;7.036;2023-08-31T04:53:31;4.93;;;3.33;;
15425;SDS011;7812;50.072;7.036;2023-08-31T04:55:59;5.27;;;3.20;;
15425;SDS011;7812;50.072;7.036;2023-08-31T04:58:25;4.67;;;3.10;;
15425;SDS011;7812;50.072;7.036;2023-08-31T05:00:52;6.33;;;3.17;;
15425;SDS011;7812;50.072;7.036;2023-08-31T05:03:18;9.40;;;3.50;;
15425;SDS011;7812;50.072;7.036;2023-08-31T05:05:43;5.00;;;3.13;;
15425;SDS011;7812;50.072;7.036;2023-08-31T05:08:09;5.43;;;3.20;;
15425;SDS011;7812;50.072;7.036;2023-08-31T05:10:35;4.63;;;2.90;;
15425;SDS011;7812;50.072;7.036;2023-08-31T05:13:01;5.73;;;2.73;;
15425;SDS011;7812;50.072;7.036;2023-08-31T05:15:29;4.73;;;3.30;;
15425;SDS011;7812;50.072;7.036;2023-08-31T05:17:55;3.97;;;3.20;;
15425;SDS011;7812;50.072;7.036;2023-08-31T05:20:21;6.30;;;3.40;;
15425;SDS011;7812;50.072;7.036;2023-08-31T05:22:50;6.30;;;3.30;;
15425;SDS011;7812;50.072;7.036;2023-08-31T05:25:16;3.77;;;2.90;;
15425;SDS011;7812;50.072;7.036;2023-08-31T05:27:42;5.57;;;3.30;;
15425;SDS011;7812;50.072;7.036;2023-08-31T05:30:08;3.83;;;2.97;;
15425;SDS011;7812;50.072;7.036;2023-08-31T05:32:34;3.57;;;2.97;;
15425;SDS011;7812;50.072;7.036;2023-08-31T05:35:00;6.77;;;3.27;;
15425;SDS011;7812;50.072;7.036;2023-08-31T05:37:31;3.93;;;2.73;;
15425;SDS011;7812;50.072;7.036;2023-08-31T05:40:00;3.33;;;2.63;;
15425;SDS011;7812;50.072;7.036;2023-08-31T05:42:30;5.80;;;3.00;;
15425;SDS011;7812;50.072;7.036;2023-08-31T05:44:57;3.67;;;2.60;;
15425;SDS011;7812;50.072;7.036;2023-08-31T05:47:23;4.57;;;2.67;;
15425;SDS011;7812;50.072;7.036;2023-08-31T05:49:49;3.47;;;2.50;;
15425;SDS011;7812;50.072;7.036;2023-08-31T05:52:16;4.03;;;2.93;;
15425;SDS011;7812;50.072;7.036;2023-08-31T05:54:42;5.53;;;2.97;;
15425;SDS011;7812;50.072;7.036;2023-08-31T05:57:08;5.17;;;2.83;;
15425;SDS011;7812;50.072;7.036;2023-08-31T05:59:34;3.87;;;2.70;;
15425;SDS011;7812;50.072;7.036;2023-08-31T06:02:00;3.67;;;2.50;;
15425;SDS011;7812;50.072;7.036;2023-08-31T06:04:28;4.80;;;2.57;;
15425;SDS011;7812;50.072;7.036;2023-08-31T06:06:54;4.10;;;2.70;;
15425;SDS011;7812;50.072;7.036;2023-08-31T06:09:19;3.93;;;2.63;;
15425;SDS011;7812;50.072;7.036;2023-08-31T06:11:45;4.40;;;2.40;;
15425;SDS011;7812;50.072;7.036;2023-08-31T06:14:11;8.73;;;2.70;;
15425;SDS011;7812;50.072;7.036;2023-08-31T06:16:37;4.13;;;2.50;;
15425;SDS011;7812;50.072;7.036;2023-08-31T06:19:03;6.07;;;2.50;;
15425;SDS011;7812;50.072;7.036;2023-08-31T06:21:30;2.60;;;2.40;;
15425;SDS011;7812;50.072;7.036;2023-08-31T06:23:56;6.67;;;2.70;;
15425;SDS011;7812;50.072;7.036;2023-08-31T06:26:22;3.87;;;2.67;;
15425;SDS011;7812;50.072;7.036;2023-08-31T06:28:47;3.73;;;2.80;;
15425;SDS011;7812;50.072;7.036;2023-08-31T06:31:25;4.33;;;2.80;;
15425;SDS011;7812;50.072;7.036;2023-08-31T06:33:51;4.37;;;2.80;;
15425;SDS011;7812;50.072;7.036;2023-08-31T06:36:17;3.47;;;2.23;;
15425;SDS011;7812;50.072;7.036;2023-08-31T06:38:43;3.63;;;2.60;;
15425;SDS011;7812;50.072;7.036;2023-08-31T06:41:09;2.90;;;2.43;;
15425;SDS011;7812;50.072;7.036;2023-08-31T06:43:35;5.00;;;2.77;;
15425;SDS011;7812;50.072;7.036;2023-08-31T06:46:02;4.27;;;2.60;;
15425;SDS011;7812;50.072;7.036;2023-08-31T06:48:28;4.97;;;3.07;;
15425;SDS011;7812;50.072;7.036;2023-08-31T06:50:54;5.97;;;3.00;;
15425;SDS011;7812;50.072;7.036;2023-08-31T06:53:21;4.90;;;2.43;;
15425;SDS011;7812;50.072;7.036;2023-08-31T06:55:47;4.43;;;2.70;;
15425;SDS011;7812;50.072;7.036;2023-08-31T06:58:14;4.13;;;2.13;;
15425;SDS011;7812;50.072;7.036;2023-08-31T07:00:40;4.47;;;2.60;;
15425;SDS011;7812;50.072;7.036;2023-08-31T07:03:06;3.70;;;2.60;;
15425;SDS011;7812;50.072;7.036;2023-08-31T07:05:33;4.47;;;2.47;;
15425;SDS011;7812;50.072;7.036;2023-08-31T07:08:05;4.30;;;2.40;;
15425;SDS011;7812;50.072;7.036;2023-08-31T07:10:31;5.03;;;2.50;;
15425;SDS011;7812;50.072;7.036;2023-08-31T07:12:57;5.13;;;2.90;;
15425;SDS011;7812;50.072;7.036;2023-08-31T07:15:23;4.77;;;2.70;;
15425;SDS011;7812;50.072;7.036;2023-08-31T07:17:49;5.07;;;2.57;;
15425;SDS011;7812;50.072;7.036;2023-08-31T07:20:15;3.57;;;2.60;;
15425;SDS011;7812;50.072;7.036;2023-08-31T07:22:41;6.30;;;2.60;;
15425;SDS011;7812;50.072;7.036;2023-08-31T07:25:07;5.73;;;2.50;;
15425;SDS011;7812;50.072;7.036;2023-08-31T07:27:33;3.67;;;2.40;;
15425;SDS011;7812;50.072;7.036;2023-08-31T07:29:59;4.10;;;2.37;;
15425;SDS011;7812;50.072;7.036;2023-08-31T07:32:25;5.83;;;2.67;;
15425;SDS011;7812;50.072;7.036;2023-08-31T07:34:51;5.13;;;2.50;;
15425;SDS011;7812;50.072;7.036;2023-08-31T07:37:17;4.57;;;2.50;;
15425;SDS011;7812;50.072;7.036;2023-08-31T07:39:43;4.73;;;2.93;;
15425;SDS011;7812;50.072;7.036;2023-08-31T07:42:09;6.17;;;2.67;;
15425;SDS011;7812;50.072;7.036;2023-08-31T07:44:35;5.63;;;2.60;;
15425;SDS011;7812;50.072;7.036;2023-08-31T07:47:01;5.57;;;2.53;;
15425;SDS011;7812;50.072;7.036;2023-08-31T07:49:27;7.20;;;2.83;;
15425;SDS011;7812;50.072;7.036;2023-08-31T07:51:53;4.13;;;2.50;;
15425;SDS011;7812;50.072;7.036;2023-08-31T07:54:20;5.30;;;3.00;;
15425;SDS011;7812;50.072;7.036;2023-08-31T07:56:46;5.83;;;3.07;;
15425;SDS011;7812;50.072;7.036;2023-08-31T07:59:13;4.73;;;2.80;;
15425;SDS011;7812;50.072;7.036;2023-08-31T08:01:39;6.07;;;2.63;;
15425;SDS011;7812;50.072;7.036;2023-08-31T08:04:06;4.77;;;2.60;;
15425;SDS011;7812;50.072;7.036;2023-08-31T08:06:35;4.67;;;2.53;;
15425;SDS011;7812;50.072;7.036;2023-08-31T08:09:01;3.80;;;2.60;;
15425;SDS011;7812;50.072;7.036;2023-08-31T08:11:27;3.20;;;2.07;;
15425;SDS011;7812;50.072;7.036;2023-08-31T08:13:53;5.33;;;2.23;;
15425;SDS011;7812;50.072;7.036;2023-08-31T08:16:25;4.57;;;2.30;;
15425;SDS011;7812;50.072;7.036;2023-08-31T08:18:51;3.50;;;2.53;;
15425;SDS011;7812;50.072;7.036;2023-08-31T08:21:17;5.47;;;3.10;;
15425;SDS011;7812;50.072;7.036;2023-08-31T08:23:43;3.57;;;2.03;;
15425;SDS011;7812;50.072;7.036;2023-08-31T08:26:09;2.90;;;2.10;;
15425;SDS011;7812;50.072;7.036;2023-08-31T08:28:35;5.10;;;2.67;;
15425;SDS011;7812;50.072;7.036;2023-08-31T08:31:01;3.80;;;2.50;;
15425;SDS011;7812;50.072;7.036;2023-08-31T08:33:31;4.80;;;2.37;;
15425;SDS011;7812;50.072;7.036;2023-08-31T08:35:57;3.93;;;2.20;;
15425;SDS011;7812;50.072;7.036;2023-08-31T08:38:23;4.77;;;2.07;;
15425;SDS011;7812;50.072;7.036;2023-08-31T08:40:50;3.47;;;1.80;;
15425;SDS011;7812;50.072;7.036;2023-08-31T08:43:16;3.77;;;2.20;;
15425;SDS011;7812;50.072;7.036;2023-08-31T08:45:50;4.73;;;2.13;;
15425;SDS011;7812;50.072;7.036;2023-08-31T08:48:17;3.23;;;1.63;;
15425;SDS011;7812;50.072;7.036;2023-08-31T08:50:44;2.73;;;1.93;;
15425;SDS011;7812;50.072;7.036;2023-08-31T08:56:38;4.40;;;1.80;;
15425;SDS011;7812;50.072;7.036;2023-08-31T08:59:04;3.50;;;1.97;;
15425;SDS011;7812;50.072;7.036;2023-08-31T09:01:31;4.20;;;2.07;;
15425;SDS011;7812;50.072;7.036;2023-08-31T09:04:00;4.07;;;2.10;;
15425;SDS011;7812;50.072;7.036;2023-08-31T09:06:29;3.37;;;1.90;;
15425;SDS011;7812;50.072;7.036;2023-08-31T09:08:55;3.70;;;1.77;;
15425;SDS011;7812;50.072;7.036;2023-08-31T09:11:23;4.83;;;1.83;;
15425;SDS011;7812;50.072;7.036;2023-08-31T09:13:50;3.43;;;1.73;;
15425;SDS011;7812;50.072;7.036;2023-08-31T09:16:26;6.27;;;1.87;;
15425;SDS011;7812;50.072;7.036;2023-08-31T09:18:57;3.13;;;2.00;;
15425;SDS011;7812;50.072;7.036;2023-08-31T09:21:36;3.43;;;1.87;;
15425;SDS011;7812;50.072;7.036;2023-08-31T09:29:56;3.50;;;1.80;;
15425;SDS011;7812;50.072;7.036;2023-08-31T09:32:23;4.47;;;2.10;;
15425;SDS011;7812;50.072;7.036;2023-08-31T09:37:57;2.97;;;1.87;;
15425;SDS011;7812;50.072;7.036;2023-08-31T09:40:26;2.87;;;1.97;;
15425;SDS011;7812;50.072;7.036;2023-08-31T09:42:52;2.87;;;1.97;;
15425;SDS011;7812;50.072;7.036;2023-08-31T09:45:23;4.63;;;2.20;;
15425;SDS011;7812;50.072;7.036;2023-08-31T09:48:01;5.93;;;2.50;;
15425;SDS011;7812;50.072;7.036;2023-08-31T09:53:44;6.37;;;2.03;;
15425;SDS011;7812;50.072;7.036;2023-08-31T09:56:18;4.33;;;2.33;;
15425;SDS011;7812;50.072;7.036;2023-08-31T09:58:50;3.27;;;1.83;;
15425;SDS011;7812;50.072;7.036;2023-08-31T10:01:16;4.40;;;2.03;;
15425;SDS011;7812;50.072;7.036;2023-08-31T10:03:46;3.67;;;2.13;;
15425;SDS011;7812;50.072;7.036;2023-08-31T10:06:21;3.63;;;1.90;;
15425;SDS011;7812;50.072;7.036;2023-08-31T10:12:27;5.50;;;2.17;;
15425;SDS011;7812;50.072;7.036;2023-08-31T10:18:45;6.53;;;1.90;;
15425;SDS011;7812;50.072;7.036;2023-08-31T10:35:04;2.80;;;1.50;;
15425;SDS011;7812;50.072;7.036;2023-08-31T10:37:32;2.43;;;1.47;;
15425;SDS011;7812;50.072;7.036;2023-08-31T10:40:08;2.10;;;1.27;;
15425;SDS011;7812;50.072;7.036;2023-08-31T10:46:24;2.03;;;1.10;;
15425;SDS011;7812;50.072;7.036;2023-08-31T10:48:57;2.47;;;1.33;;
15425;SDS011;7812;50.072;7.036;2023-08-31T10:55:04;3.53;;;1.40;;
15425;SDS011;7812;50.072;7.036;2023-08-31T10:57:34;1.97;;;1.30;;
15425;SDS011;7812;50.072;7.036;2023-08-31T11:00:01;1.83;;;1.20;;
15425;SDS011;7812;50.072;7.036;2023-08-31T11:03:03;2.23;;;1.10;;
15425;SDS011;7812;50.072;7.036;2023-08-31T11:05:30;2.67;;;1.57;;
15425;SDS011;7812;50.072;7.036;2023-08-31T11:11:24;2.63;;;1.53;;
15425;SDS011;7812;50.072;7.036;2023-08-31T11:14:39;2.70;;;1.47;;
15425;SDS011;7812;50.072;7.036;2023-08-31T11:17:09;2.27;;;1.17;;
15425;SDS011;7812;50.072;7.036;2023-08-31T11:19:38;1.50;;;1.10;;
15425;SDS011;7812;50.072;7.036;2023-08-31T11:25:38;2.27;;;1.40;;
15425;SDS011;7812;50.072;7.036;2023-08-31T11:29:06;2.73;;;1.57;;
15425;SDS011;7812;50.072;7.036;2023-08-31T11:31:57;1.77;;;1.30;;
15425;SDS011;7812;50.072;7.036;2023-08-31T11:37:46;3.63;;;1.50;;
15425;SDS011;7812;50.072;7.036;2023-08-31T11:43:20;2.73;;;1.53;;
15425;SDS011;7812;50.072;7.036;2023-08-31T11:46:04;3.00;;;1.30;;
15425;SDS011;7812;50.072;7.036;2023-08-31T11:48:34;6.77;;;1.50;;
15425;SDS011;7812;50.072;7.036;2023-08-31T11:54:24;2.40;;;1.50;;
15425;SDS011;7812;50.072;7.036;2023-08-31T11:56:50;3.40;;;1.70;;
15425;SDS011;7812;50.072;7.036;2023-08-31T11:59:19;2.67;;;1.57;;
15425;SDS011;7812;50.072;7.036;2023-08-31T12:01:47;2.37;;;1.40;;
15425;SDS011;7812;50.072;7.036;2023-08-31T12:11:37;1.50;;;1.30;;
15425;SDS011;7812;50.072;7.036;2023-08-31T12:14:22;2.47;;;1.40;;
15425;SDS011;7812;50.072;7.036;2023-08-31T12:16:49;2.93;;;1.70;;
15425;SDS011;7812;50.072;7.036;2023-08-31T12:25:21;1.87;;;1.40;;
15425;SDS011;7812;50.072;7.036;2023-08-31T12:27:48;3.20;;;1.60;;
15425;SDS011;7812;50.072;7.036;2023-08-31T12:30:15;2.27;;;1.67;;
15425;SDS011;7812;50.072;7.036;2023-08-31T12:35:48;2.63;;;1.20;;
15425;SDS011;7812;50.072;7.036;2023-08-31T12:38:15;2.90;;;1.70;;
15425;SDS011;7812;50.072;7.036;2023-08-31T12:43:58;3.10;;;1.67;;
15425;SDS011;7812;50.072;7.036;2023-08-31T12:46:42;2.83;;;1.60;;
15425;SDS011;7812;50.072;7.036;2023-08-31T12:49:36;3.50;;;1.90;;
15425;SDS011;7812;50.072;7.036;2023-08-31T12:52:02;4.33;;;1.50;;
15425;SDS011;7812;50.072;7.036;2023-08-31T12:54:28;2.20;;;1.50;;
15425;SDS011;7812;50.072;7.036;2023-08-31T13:00:18;2.77;;;1.60;;
15425;SDS011;7812;50.072;7.036;2023-08-31T13:02:44;3.57;;;1.47;;
15425;SDS011;7812;50.072;7.036;2023-08-31T13:05:10;3.30;;;1.50;;
15425;SDS011;7812;50.072;7.036;2023-08-31T13:07:39;4.30;;;1.90;;
15425;SDS011;7812;50.072;7.036;2023-08-31T13:10:05;2.63;;;1.43;;
15425;SDS011;7812;50.072;7.036;2023-08-31T13:12:34;2.33;;;1.47;;
15425;SDS011;7812;50.072;7.036;2023-08-31T13:21:22;2.70;;;1.30;;
15425;SDS011;7812;50.072;7.036;2023-08-31T13:23:49;3.03;;;1.40;;
15425;SDS011;7812;50.072;7.036;2023-08-31T13:26:25;2.73;;;1.40;;
15425;SDS011;7812;50.072;7.036;2023-08-31T13:28:51;3.33;;;1.20;;
15425;SDS011;7812;50.072;7.036;2023-08-31T13:31:17;4.57;;;1.63;;
15425;SDS011;7812;50.072;7.036;2023-08-31T13:33:44;4.63;;;1.97;;
15425;SDS011;7812;50.072;7.036;2023-08-31T13:36:15;1.70;;;1.30;;
15425;SDS011;7812;50.072;7.036;2023-08-31T13:38:42;3.30;;;1.60;;
15425;SDS011;7812;50.072;7.036;2023-08-31T13:41:11;3.43;;;1.80;;
15425;SDS011;7812;50.072;7.036;2023-08-31T13:43:37;4.27;;;1.83;;
15425;SDS011;7812;50.072;7.036;2023-08-31T13:46:08;3.63;;;1.60;;
15425;SDS011;7812;50.072;7.036;2023-08-31T13:51:38;4.03;;;1.87;;
15425;SDS011;7812;50.072;7.036;2023-08-31T13:54:07;3.33;;;1.53;;
15425;SDS011;7812;50.072;7.036;2023-08-31T13:56:33;4.70;;;1.70;;
15425;SDS011;7812;50.072;7.036;2023-08-31T13:59:02;4.10;;;1.67;;
15425;SDS011;7812;50.072;7.036;2023-08-31T14:01:29;3.53;;;1.53;;
15425;SDS011;7812;50.072;7.036;2023-08-31T14:03:55;2.20;;;1.70;;
15425;SDS011;7812;50.072;7.036;2023-08-31T14:06:33;4.63;;;1.63;;
15425;SDS011;7812;50.072;7.036;2023-08-31T14:09:09;3.30;;;1.63;;
15425;SDS011;7812;50.072;7.036;2023-08-31T14:14:59;4.47;;;1.80;;
15425;SDS011;7812;50.072;7.036;2023-08-31T14:17:29;2.87;;;1.73;;
15425;SDS011;7812;50.072;7.036;2023-08-31T14:19:56;2.97;;;1.70;;
15425;SDS011;7812;50.072;7.036;2023-08-31T14:22:24;3.37;;;1.70;;
15425;SDS011;7812;50.072;7.036;2023-08-31T14:24:49;2.77;;;1.60;;
15425;SDS011;7812;50.072;7.036;2023-08-31T14:27:15;3.10;;;2.00;;
15425;SDS011;7812;50.072;7.036;2023-08-31T14:29:41;3.27;;;1.87;;
15425;SDS011;7812;50.072;7.036;2023-08-31T14:35:18;4.10;;;1.83;;
15425;SDS011;7812;50.072;7.036;2023-08-31T14:37:53;3.60;;;1.60;;
15425;SDS011;7812;50.072;7.036;2023-08-31T14:40:28;2.53;;;1.57;;
15425;SDS011;7812;50.072;7.036;2023-08-31T14:42:54;3.50;;;1.70;;
15425;SDS011;7812;50.072;7.036;2023-08-31T14:45:38;2.63;;;1.73;;
15425;SDS011;7812;50.072;7.036;2023-08-31T14:48:04;5.10;;;2.23;;
15425;SDS011;7812;50.072;7.036;2023-08-31T14:50:30;3.30;;;1.90;;
15425;SDS011;7812;50.072;7.036;2023-08-31T14:52:55;3.37;;;2.00;;
15425;SDS011;7812;50.072;7.036;2023-08-31T14:55:25;4.70;;;2.20;;
15425;SDS011;7812;50.072;7.036;2023-08-31T14:57:51;3.40;;;1.80;;
15425;SDS011;7812;50.072;7.036;2023-08-31T15:00:17;2.83;;;1.50;;
15425;SDS011;7812;50.072;7.036;2023-08-31T15:02:44;4.57;;;1.93;;
15425;SDS011;7812;50.072;7.036;2023-08-31T15:05:11;3.07;;;1.80;;
15425;SDS011;7812;50.072;7.036;2023-08-31T15:07:38;2.40;;;1.87;;
15425;SDS011;7812;50.072;7.036;2023-08-31T15:10:04;5.20;;;2.10;;
15425;SDS011;7812;50.072;7.036;2023-08-31T15:12:31;3.47;;;1.63;;
15425;SDS011;7812;50.072;7.036;2023-08-31T15:14:58;4.20;;;1.87;;
15425;SDS011;7812;50.072;7.036;2023-08-31T15:17:25;3.60;;;1.90;;
15425;SDS011;7812;50.072;7.036;2023-08-31T15:19:51;4.10;;;1.93;;
15425;SDS011;7812;50.072;7.036;2023-08-31T15:22:17;4.67;;;1.90;;
15425;SDS011;7812;50.072;7.036;2023-08-31T15:24:46;3.73;;;1.70;;
15425;SDS011;7812;50.072;7.036;2023-08-31T15:27:16;4.13;;;1.97;;
15425;SDS011;7812;50.072;7.036;2023-08-31T15:29:42;2.57;;;1.50;;
15425;SDS011;7812;50.072;7.036;2023-08-31T15:32:09;4.07;;;2.27;;
15425;SDS011;7812;50.072;7.036;2023-08-31T15:34:35;3.97;;;1.90;;
15425;SDS011;7812;50.072;7.036;2023-08-31T15:37:02;5.13;;;2.10;;
15425;SDS011;7812;50.072;7.036;2023-08-31T15:39:28;5.63;;;2.23;;
15425;SDS011;7812;50.072;7.036;2023-08-31T15:41:54;5.73;;;2.33;;
15425;SDS011;7812;50.072;7.036;2023-08-31T15:44:20;4.47;;;1.90;;
15425;SDS011;7812;50.072;7.036;2023-08-31T15:46:46;4.57;;;1.80;;
15425;SDS011;7812;50.072;7.036;2023-08-31T15:49:12;4.60;;;2.20;;
15425;SDS011;7812;50.072;7.036;2023-08-31T15:51:39;5.00;;;2.27;;
15425;SDS011;7812;50.072;7.036;2023-08-31T15:54:05;6.13;;;2.00;;
15425;SDS011;7812;50.072;7.036;2023-08-31T15:56:31;2.73;;;1.80;;
15425;SDS011;7812;50.072;7.036;2023-08-31T15:58:58;5.67;;;2.33;;
15425;SDS011;7812;50.072;7.036;2023-08-31T16:01:24;3.97;;;1.90;;
15425;SDS011;7812;50.072;7.036;2023-08-31T16:03:51;5.23;;;2.10;;
15425;SDS011;7812;50.072;7.036;2023-08-31T16:06:17;4.67;;;2.10;;
15425;SDS011;7812;50.072;7.036;2023-08-31T16:08:43;6.93;;;2.57;;
15425;SDS011;7812;50.072;7.036;2023-08-31T16:11:09;3.00;;;1.90;;
15425;SDS011;7812;50.072;7.036;2023-08-31T16:13:35;3.40;;;1.93;;
15425;SDS011;7812;50.072;7.036;2023-08-31T16:16:05;4.00;;;2.00;;
15425;SDS011;7812;50.072;7.036;2023-08-31T16:18:31;4.50;;;2.20;;
15425;SDS011;7812;50.072;7.036;2023-08-31T16:21:00;4.93;;;2.00;;
15425;SDS011;7812;50.072;7.036;2023-08-31T16:23:26;7.70;;;2.27;;
15425;SDS011;7812;50.072;7.036;2023-08-31T16:25:52;2.53;;;1.90;;
15425;SDS011;7812;50.072;7.036;2023-08-31T16:28:18;3.40;;;1.87;;
15425;SDS011;7812;50.072;7.036;2023-08-31T16:30:47;3.53;;;2.20;;
15425;SDS011;7812;50.072;7.036;2023-08-31T16:33:13;4.40;;;2.70;;
15425;SDS011;7812;50.072;7.036;2023-08-31T16:35:39;4.07;;;2.20;;
15425;SDS011;7812;50.072;7.036;2023-08-31T16:38:05;5.17;;;2.30;;
15425;SDS011;7812;50.072;7.036;2023-08-31T16:40:31;5.40;;;2.70;;
15425;SDS011;7812;50.072;7.036;2023-08-31T16:43:01;4.50;;;2.60;;
15425;SDS011;7812;50.072;7.036;2023-08-31T16:45:27;6.67;;;2.40;;
15425;SDS011;7812;50.072;7.036;2023-08-31T16:47:53;6.67;;;2.30;;
15425;SDS011;7812;50.072;7.036;2023-08-31T16:50:29;4.20;;;2.40;;
15425;SDS011;7812;50.072;7.036;2023-08-31T16:52:56;5.27;;;2.40;;
15425;SDS011;7812;50.072;7.036;2023-08-31T16:55:22;3.97;;;2.03;;